Time;durP1;ratioP1;P1;durP2;ratioP2;P2;SDS_P1;SDS_P2;PMS_P1;PMS_P2;Temp;Humidity;BMP_temperature;BMP_pressure;BME280_temperature;BME280_humidity;BME280_pressure;Samples;Min_cycle;Max_cycle;Signal;HPM_P1;HPM_P2
2024/03/01 00:00:29;;;;;;;55.40;35.20;;;;;;;8.37;88.39;101263.13;105865;1257;138043;-71
2024/03/01 00:03:15;;;;;;;54.00;34.70;;;;;;;8.37;88.52;101258.92;105837;1259;75416;-68
2024/03/01 00:05:42;;;;;;;57.20;34.50;;;;;;;8.38;88.52;101257.55;105677;1257;138507;-69
2024/03/01 00:08:09;;;;;;;58.20;34.40;;;;;;;8.39;88.46;101251.83;105818;1257;70914;-68
2024/03/01 00:10:35;;;;;;;50.30;31.90;;;;;;;8.41;88.48;101252.39;105774;1257;60496;-68
2024/03/01 00:13:02;;;;;;;48.40;31.40;;;;;;;8.40;88.53;101250.98;105784;1260;139329;-68
2024/03/01 00:15:29;;;;;;;54.70;33.50;;;;;;;8.41;88.47;101252.27;105796;1259;73852;-69
2024/03/01 00:17:56;;;;;;;50.90;31.80;;;;;;;8.40;88.36;101247.85;105639;1258;138451;-68
2024/03/01 00:20:23;;;;;;;50.60;32.00;;;;;;;8.40;88.41;101246.25;104735;1257;72727;-68
2024/03/01 00:22:52;;;;;;;49.70;32.20;;;;;;;8.40;88.37;101241.02;104646;1258;60404;-69
2024/03/01 00:25:19;;;;;;;49.90;33.20;;;;;;;8.41;88.46;101232.67;108293;1257;138345;-67
2024/03/01 00:27:46;;;;;;;53.90;32.10;;;;;;;8.41;88.34;101224.98;105862;1260;73512;-68
2024/03/01 00:30:15;;;;;;;57.40;33.00;;;;;;;8.42;88.40;101223.11;104641;1260;138524;-68
2024/03/01 00:32:42;;;;;;;47.80;32.00;;;;;;;8.43;88.26;101221.55;104712;1259;71690;-68
2024/03/01 00:35:09;;;;;;;53.50;32.60;;;;;;;8.45;88.43;101218.67;104934;1257;60563;-68
2024/03/01 00:37:35;;;;;;;49.40;31.00;;;;;;;8.44;88.31;101219.70;104550;1262;138177;-68
2024/03/01 00:40:03;;;;;;;50.20;32.30;;;;;;;8.44;88.28;101220.21;104668;1259;73142;-67
2024/03/01 00:42:29;;;;;;;55.50;33.50;;;;;;;8.44;88.18;101222.67;104621;1257;138714;-67
2024/03/01 00:44:56;;;;;;;53.40;32.00;;;;;;;8.44;88.33;101220.05;104760;1258;72858;-67
2024/03/01 00:47:23;;;;;;;48.20;33.00;;;;;;;8.45;88.27;101215.88;104876;1258;60421;-67
2024/03/01 00:49:50;;;;;;;51.20;33.10;;;;;;;8.45;88.36;101216.58;104846;1254;138160;-67
2024/03/01 00:52:17;;;;;;;49.30;34.00;;;;;;;8.43;88.27;101212.66;104923;1254;74238;-67
2024/03/01 00:54:44;;;;;;;50.20;32.70;;;;;;;8.44;88.26;101210.42;104809;1257;138281;-68
2024/03/01 00:57:10;;;;;;;53.40;32.10;;;;;;;8.44;88.24;101207.11;105039;1254;73153;-68
2024/03/01 00:59:37;;;;;;;53.00;31.90;;;;;;;8.44;88.29;101207.95;104845;1256;138404;-68
2024/03/01 01:02:07;;;;;;;50.60;31.20;;;;;;;8.44;88.25;101206.73;105004;1259;60447;-68
2024/03/01 01:04:34;;;;;;;50.00;32.40;;;;;;;8.44;88.31;101208.16;104967;1255;74529;-69
2024/03/01 01:07:01;;;;;;;52.00;32.90;;;;;;;8.43;88.29;101208.81;104841;1254;138559;-69
2024/03/01 01:09:27;;;;;;;45.00;31.80;;;;;;;8.44;88.26;101207.79;104802;1259;73989;-68
2024/03/01 01:11:56;;;;;;;51.40;31.90;;;;;;;8.45;88.31;101202.06;105010;1258;139011;-67
2024/03/01 01:14:23;;;;;;;50.90;32.40;;;;;;;8.46;88.31;101195.84;108858;1254;59566;-67
2024/03/01 01:16:49;;;;;;;55.40;34.00;;;;;;;8.48;88.34;101194.14;107877;1255;74323;-68
2024/03/01 01:19:16;;;;;;;51.90;33.40;;;;;;;8.50;88.38;101194.59;104976;1259;138118;-67
2024/03/01 01:21:43;;;;;;;55.30;31.60;;;;;;;8.52;88.32;101197.31;104918;1260;71335;-67
2024/03/01 01:24:09;;;;;;;54.40;34.70;;;;;;;8.54;88.28;101198.27;105857;1256;138486;-67
2024/03/01 01:26:36;;;;;;;54.10;33.80;;;;;;;8.57;88.29;101195.91;104969;1256;60509;-67
2024/03/01 01:29:03;;;;;;;50.70;31.60;;;;;;;8.58;88.18;101188.77;104837;1260;74316;-67
2024/03/01 01:31:30;;;;;;;52.90;32.80;;;;;;;8.59;88.23;101185.12;104761;1258;138222;-66
2024/03/01 01:33:57;;;;;;;47.70;31.60;;;;;;;8.59;88.29;101182.37;104962;1256;73123;-67
2024/03/01 01:36:23;;;;;;;55.00;32.50;;;;;;;8.61;88.17;101181.02;104736;1256;138475;-69
2024/03/01 01:38:50;;;;;;;45.10;31.50;;;;;;;8.60;88.22;101174.18;106063;1256;60513;-69
2024/03/01 01:41:17;;;;;;;53.30;31.40;;;;;;;8.61;88.19;101172.45;106049;1254;72594;-69
2024/03/01 01:43:43;;;;;;;51.20;32.90;;;;;;;8.61;88.15;101171.58;105939;1258;138325;-68
2024/03/01 01:46:11;;;;;;;48.60;31.90;;;;;;;8.62;88.23;101168.30;106069;1254;71447;-68
2024/03/01 01:48:38;;;;;;;51.90;32.50;;;;;;;8.62;88.15;101166.03;105808;1255;139397;-68
2024/03/01 01:51:05;;;;;;;50.60;31.00;;;;;;;8.64;88.23;101161.52;105851;1254;60049;-69
2024/03/01 01:53:32;;;;;;;47.60;31.40;;;;;;;8.65;88.15;101162.46;105806;1260;73899;-68
2024/03/01 01:55:59;;;;;;;49.50;30.80;;;;;;;8.66;88.21;101158.67;105687;1256;138589;-70
2024/03/01 01:58:29;;;;;;;49.50;31.90;;;;;;;8.66;88.17;101152.73;105958;1255;73078;-70
2024/03/01 02:00:56;;;;;;;44.40;29.00;;;;;;;8.67;88.14;101151.52;104816;1260;138179;-70
2024/03/01 02:03:23;;;;;;;46.80;30.20;;;;;;;8.68;88.26;101151.05;104985;1256;61083;-70
2024/03/01 02:05:50;;;;;;;48.80;30.40;;;;;;;8.69;88.20;101146.55;104733;1256;138818;-69
2024/03/01 02:08:17;;;;;;;46.00;29.90;;;;;;;8.71;88.18;101141.88;104991;1256;65694;-70
2024/03/01 02:10:45;;;;;;;46.10;30.80;;;;;;;8.71;88.18;101139.29;104999;1259;73271;-70
2024/03/01 02:13:18;;;;;;;46.60;29.70;;;;;;;8.74;88.24;101132.02;104853;1256;138843;-70
2024/03/01 02:15:45;;;;;;;48.60;30.40;;;;;;;8.75;88.30;101128.39;105045;1254;60594;-70
2024/03/01 02:18:12;;;;;;;47.30;29.80;;;;;;;8.77;88.26;101128.10;104706;1256;138463;-70
2024/03/01 02:20:48;;;;;;;48.90;31.90;;;;;;;8.78;88.26;101122.90;104958;1256;68054;-70
2024/03/01 02:23:18;;;;;;;45.60;31.90;;;;;;;8.79;88.22;101117.69;104974;1256;71660;-69
2024/03/01 02:25:45;;;;;;;46.80;30.60;;;;;;;8.81;88.25;101113.89;104939;1254;138438;-69
2024/03/01 02:28:12;;;;;;;46.20;29.90;;;;;;;8.81;88.18;101111.62;105064;1257;60426;-69
2024/03/01 02:30:39;;;;;;;52.20;30.80;;;;;;;8.82;88.26;101111.33;104938;1256;139049;-71
2024/03/01 02:33:05;;;;;;;45.60;29.90;;;;;;;8.81;88.19;101108.17;104969;1256;64757;-68
2024/03/01 02:35:32;;;;;;;48.40;29.60;;;;;;;8.80;88.05;101104.77;106022;1259;70778;-71
2024/03/01 02:37:59;;;;;;;52.90;30.00;;;;;;;8.79;88.16;101102.81;105677;1256;138424;-71
2024/03/01 02:40:26;;;;;;;47.20;30.80;;;;;;;8.79;88.18;101096.54;106115;1260;60829;-71
2024/03/01 02:42:52;;;;;;;53.30;30.10;;;;;;;8.81;88.27;101093.98;105953;1256;138383;-73
2024/03/01 02:45:19;;;;;;;47.40;30.20;;;;;;;8.82;88.29;101089.63;105953;1259;65098;-73
2024/03/01 02:47:46;;;;;;;44.20;29.80;;;;;;;8.83;88.24;101087.57;105727;1260;138713;-72
2024/03/01 02:50:12;;;;;;;52.50;29.90;;;;;;;8.83;88.22;101081.28;105821;1261;60474;-73
2024/03/01 02:52:40;;;;;;;51.30;30.40;;;;;;;8.84;88.20;101081.98;105831;1260;60517;-72
2024/03/01 02:55:07;;;;;;;47.40;31.90;;;;;;;8.84;88.33;101081.47;105801;1256;138184;-73
2024/03/01 02:57:34;;;;;;;45.00;30.60;;;;;;;8.86;88.26;101084.52;106094;1259;66305;-72
2024/03/01 03:00:02;;;;;;;45.50;29.70;;;;;;;8.86;88.21;101081.02;105824;1256;138607;-71
2024/03/01 03:02:29;;;;;;;48.00;31.40;;;;;;;8.87;88.29;101079.65;106022;1258;60437;-71
2024/03/01 03:04:55;;;;;;;52.00;31.30;;;;;;;8.87;88.12;101078.27;105896;1258;60585;-70
2024/03/01 03:07:22;;;;;;;44.60;29.90;;;;;;;8.87;88.28;101078.27;105892;1255;138683;-69
2024/03/01 03:09:49;;;;;;;50.30;31.40;;;;;;;8.88;88.24;101073.05;104966;1260;66171;-69
2024/03/01 03:12:15;;;;;;;51.60;30.10;;;;;;;8.89;88.28;101072.20;104833;1256;139881;-69
2024/03/01 03:14:42;;;;;;;49.80;31.10;;;;;;;8.88;88.22;101071.67;104927;1262;60438;-69
2024/03/01 03:17:10;;;;;;;57.30;33.60;;;;;;;8.88;88.25;101066.07;104897;1260;60982;-69
2024/03/01 03:19:37;;;;;;;56.00;33.50;;;;;;;8.89;88.24;101067.84;104932;1258;138788;-68
2024/03/01 03:22:08;;;;;;;52.70;33.50;;;;;;;8.89;88.29;101066.96;104915;1257;64733;-68
2024/03/01 03:24:39;;;;;;;51.10;33.40;;;;;;;8.89;88.31;101068.52;105814;1256;138289;-68
2024/03/01 03:27:06;;;;;;;53.50;32.20;;;;;;;8.88;88.26;101068.15;105050;1255;60641;-69
2024/03/01 03:29:33;;;;;;;49.40;33.30;;;;;;;8.87;88.23;101063.92;104925;1261;59903;-70
2024/03/01 03:32:00;;;;;;;47.90;33.60;;;;;;;8.87;88.40;101068.29;104879;1256;138645;-70
2024/03/01 03:34:27;;;;;;;53.20;32.70;;;;;;;8.88;88.43;101066.92;104912;1255;65439;-69
2024/03/01 03:36:53;;;;;;;55.60;35.10;;;;;;;8.88;88.35;101072.71;104729;1261;138490;-68
2024/03/01 03:39:20;;;;;;;54.30;33.00;;;;;;;8.88;88.42;101071.33;104934;1259;60557;-68
2024/03/01 03:41:47;;;;;;;53.10;33.80;;;;;;;8.89;88.42;101072.55;104788;1258;139783;-69
2024/03/01 03:44:13;;;;;;;53.10;33.80;;;;;;;8.89;88.38;101071.67;104921;1259;73514;-69
2024/03/01 03:46:40;;;;;;;54.70;33.80;;;;;;;8.89;88.44;101071.86;104874;1257;65986;-69
2024/03/01 03:49:10;;;;;;;50.80;32.40;;;;;;;8.89;88.54;101063.64;104868;1256;138308;-70
2024/03/01 03:51:37;;;;;;;52.80;34.90;;;;;;;8.90;88.43;101065.95;105047;1256;60442;-69
2024/03/01 03:54:04;;;;;;;54.70;35.00;;;;;;;8.90;88.42;101061.94;104767;1258;138521;-70
2024/03/01 03:56:31;;;;;;;54.80;35.90;;;;;;;8.90;88.34;101065.45;104953;1254;74488;-70
2024/03/01 03:58:59;;;;;;;52.40;34.30;;;;;;;8.90;88.45;101062.81;109153;1254;66310;-70
2024/03/01 04:01:25;;;;;;;52.90;34.60;;;;;;;8.90;88.43;101057.75;104905;1256;138508;-70
2024/03/01 04:03:52;;;;;;;55.70;35.00;;;;;;;8.91;88.44;101053.23;105025;1256;60566;-71
2024/03/01 04:06:19;;;;;;;58.20;34.90;;;;;;;8.92;88.45;101052.73;104765;1261;138649;-71
2024/03/01 04:08:46;;;;;;;51.70;34.60;;;;;;;8.93;88.42;101048.55;104924;1256;73270;-70
2024/03/01 04:11:12;;;;;;;53.50;35.10;;;;;;;8.94;88.41;101049.65;105010;1257;65594;-70
2024/03/01 04:13:39;;;;;;;59.30;35.70;;;;;;;8.93;88.41;101045.79;104879;1259;138704;-70
2024/03/01 04:16:06;;;;;;;57.90;35.00;;;;;;;8.93;88.47;101043.70;104884;1258;60559;-71
2024/03/01 04:18:33;;;;;;;58.30;36.80;;;;;;;8.94;88.49;101046.50;104780;1261;138297;-70
2024/03/01 04:21:00;;;;;;;63.60;36.90;;;;;;;8.95;88.53;101046.19;104949;1256;74547;-71
2024/03/01 04:23:27;;;;;;;51.70;34.20;;;;;;;8.97;88.45;101044.30;104983;1261;67031;-70
2024/03/01 04:25:54;;;;;;;49.70;34.50;;;;;;;8.95;88.46;101040.42;104944;1256;138240;-71
2024/03/01 04:28:21;;;;;;;57.60;35.90;;;;;;;8.95;88.50;101039.69;105040;1258;60544;-73
2024/03/01 04:30:48;;;;;;;56.60;36.20;;;;;;;8.94;88.42;101037.92;105183;1255;138410;-73
2024/03/01 04:33:15;;;;;;;60.00;36.80;;;;;;;8.93;88.43;101036.66;105071;1256;74222;-73
2024/03/01 04:35:42;;;;;;;58.30;36.40;;;;;;;8.93;88.54;101040.19;106106;1254;139031;-72
2024/03/01 04:38:08;;;;;;;58.60;37.70;;;;;;;8.94;88.44;101038.29;105893;1259;71379;-73
2024/03/01 04:40:37;;;;;;;57.70;37.50;;;;;;;8.94;88.55;101037.23;105997;1256;60691;-74
2024/03/01 04:43:07;;;;;;;57.70;37.00;;;;;;;8.94;88.55;101036.36;105931;1256;138421;-74
2024/03/01 04:45:34;;;;;;;60.20;38.20;;;;;;;8.95;88.49;101038.15;105911;1261;73969;-71
2024/03/01 04:48:00;;;;;;;63.30;38.30;;;;;;;8.96;88.55;101042.72;105610;1256;138622;-70
2024/03/01 04:50:27;;;;;;;60.00;38.00;;;;;;;8.98;88.53;101044.88;104814;1256;73213;-70
2024/03/01 04:52:54;;;;;;;63.30;38.90;;;;;;;8.98;88.51;101042.62;104805;1259;60443;-70
2024/03/01 04:55:21;;;;;;;62.50;38.10;;;;;;;9.00;88.59;101045.67;104819;1259;138278;-70
2024/03/01 04:57:47;;;;;;;57.00;36.80;;;;;;;9.02;88.58;101052.02;104887;1256;73854;-70
2024/03/01 05:00:15;;;;;;;59.10;38.10;;;;;;;9.01;88.60;101049.05;104869;1258;138431;-70
2024/03/01 05:02:42;;;;;;;55.40;36.70;;;;;;;9.03;88.57;101048.23;109077;1258;73163;-71
2024/03/01 05:05:14;;;;;;;56.10;37.90;;;;;;;9.04;88.48;101053.50;108970;1256;58417;-67
2024/03/01 05:07:41;;;;;;;55.30;37.40;;;;;;;9.03;88.36;101053.11;108996;1255;138315;-67
2024/03/01 05:10:11;;;;;;;63.30;37.00;;;;;;;9.04;88.44;101052.09;109026;1255;71228;-68
2024/03/01 05:12:38;;;;;;;60.10;37.20;;;;;;;9.05;88.38;101050.92;108923;1254;138556;-68
2024/03/01 05:15:07;;;;;;;56.10;37.80;;;;;;;9.05;88.30;101052.34;109003;1256;70436;-67
2024/03/01 05:17:34;;;;;;;59.50;38.90;;;;;;;9.05;88.38;101053.38;109030;1255;59746;-67
2024/03/01 05:20:02;;;;;;;57.30;36.50;;;;;;;9.06;88.35;101054.11;108882;1255;138856;-68
2024/03/01 05:22:29;;;;;;;54.30;35.80;;;;;;;9.08;88.37;101054.55;108996;1254;72627;-67
2024/03/01 05:24:56;;;;;;;56.80;38.10;;;;;;;9.10;88.43;101056.73;108986;1256;138220;-67
2024/03/01 05:27:23;;;;;;;61.30;37.00;;;;;;;9.11;88.31;101054.13;109032;1255;71109;-65
2024/03/01 05:29:50;;;;;;;57.50;37.50;;;;;;;9.13;88.26;101054.36;105607;1255;138968;-66
2024/03/01 05:32:17;;;;;;;58.20;39.70;;;;;;;9.13;88.26;101049.28;104919;1259;60551;-66
2024/03/01 05:34:44;;;;;;;59.70;37.20;;;;;;;9.12;88.22;101049.96;108979;1255;75215;-67
2024/03/01 05:37:10;;;;;;;58.80;39.00;;;;;;;9.13;88.29;101053.65;108956;1257;138375;-66
2024/03/01 05:39:38;;;;;;;61.90;40.60;;;;;;;9.13;88.31;101048.41;108996;1259;71394;-67
2024/03/01 05:42:06;;;;;;;60.60;38.20;;;;;;;9.13;88.33;101046.48;108957;1256;138827;-67
2024/03/01 05:44:32;;;;;;;60.20;40.30;;;;;;;9.13;88.33;101045.44;109054;1254;60487;-67
2024/03/01 05:47:00;;;;;;;64.80;39.30;;;;;;;9.15;88.32;101049.70;108264;1258;73631;-69
2024/03/01 05:49:27;;;;;;;64.10;39.90;;;;;;;9.15;88.29;101047.42;104764;1254;138524;-68
2024/03/01 05:51:54;;;;;;;62.90;38.40;;;;;;;9.14;88.30;101042.31;104850;1256;71425;-70
2024/03/01 05:54:21;;;;;;;65.80;39.50;;;;;;;9.13;88.34;101039.30;105077;1259;139229;-70
2024/03/01 05:56:47;;;;;;;60.80;38.60;;;;;;;9.13;88.44;101039.30;105256;1261;60580;-67
2024/03/01 05:59:14;;;;;;;63.10;41.40;;;;;;;9.15;88.59;101039.55;104879;1259;74767;-66
2024/03/01 06:01:41;;;;;;;63.70;40.70;;;;;;;9.16;88.46;101040.98;104805;1260;138760;-63
2024/03/01 06:04:10;;;;;;;66.80;41.20;;;;;;;9.16;88.46;101038.88;104847;1256;72155;-64
2024/03/01 06:06:37;;;;;;;64.00;42.50;;;;;;;9.17;88.62;101037.33;108981;1256;138617;-63
2024/03/01 06:09:04;;;;;;;65.60;42.40;;;;;;;9.18;88.52;101036.83;109136;1254;60577;-65
2024/03/01 06:11:31;;;;;;;67.30;40.50;;;;;;;9.19;88.59;101038.98;109163;1255;73960;-65
2024/03/01 06:13:57;;;;;;;60.50;40.10;;;;;;;9.21;88.56;101039.39;108920;1256;138366;-64
2024/03/01 06:16:24;;;;;;;63.00;41.10;;;;;;;9.24;88.65;101041.59;108803;1258;71923;-67
2024/03/01 06:18:51;;;;;;;65.70;41.70;;;;;;;9.27;88.65;101041.52;108934;1256;138422;-66
2024/03/01 06:21:21;;;;;;;67.70;41.10;;;;;;;9.28;88.45;101049.98;108898;1256;58423;-73
2024/03/01 06:23:48;;;;;;;65.10;41.80;;;;;;;9.31;88.48;101052.00;105006;1254;138574;-71
2024/03/01 06:26:15;;;;;;;67.10;43.10;;;;;;;9.33;88.47;101056.83;105349;1257;66593;-72
2024/03/01 06:28:42;;;;;;;70.50;43.10;;;;;;;9.36;88.43;101051.64;105932;1258;73220;-75
2024/03/01 06:31:09;;;;;;;65.20;41.10;;;;;;;9.36;88.40;101045.52;105813;1259;138909;-71
2024/03/01 06:33:36;;;;;;;68.70;40.90;;;;;;;9.37;88.45;101047.46;105983;1256;60411;-71
2024/03/01 06:36:03;;;;;;;65.70;40.70;;;;;;;9.38;88.47;101040.48;105817;1258;139050;-69
2024/03/01 06:38:30;;;;;;;60.10;38.50;;;;;;;9.40;88.48;101042.50;109039;1259;66502;-68
2024/03/01 06:40:59;;;;;;;62.70;40.10;;;;;;;9.42;88.37;101041.20;108986;1256;72723;-69
2024/03/01 06:43:26;;;;;;;56.80;36.70;;;;;;;9.45;88.49;101038.83;106702;1258;138681;-69
2024/03/01 06:45:53;;;;;;;65.40;40.50;;;;;;;9.49;88.47;101036.00;104841;1256;60790;-69
2024/03/01 06:48:21;;;;;;;69.00;40.30;;;;;;;9.51;88.42;101036.77;104937;1259;138438;-69
2024/03/01 06:50:47;;;;;;;57.90;39.40;;;;;;;9.52;88.29;101036.27;105074;1262;65578;-69
2024/03/01 06:53:14;;;;;;;63.80;41.50;;;;;;;9.53;88.27;101034.56;104808;1260;73286;-69
2024/03/01 06:55:41;;;;;;;66.10;40.90;;;;;;;9.53;88.36;101037.36;104574;1256;138684;-69
2024/03/01 06:58:07;;;;;;;69.10;41.90;;;;;;;9.54;88.35;101039.31;104823;1258;60533;-69
2024/03/01 07:00:34;;;;;;;67.40;40.50;;;;;;;9.56;88.38;101039.55;104706;1257;138334;-69
2024/03/01 07:03:02;;;;;;;69.30;41.40;;;;;;;9.60;88.45;101040.05;104934;1258;67228;-69
2024/03/01 07:05:29;;;;;;;68.50;41.80;;;;;;;9.61;88.28;101040.77;104877;1260;74149;-69
2024/03/01 07:07:57;;;;;;;63.60;40.80;;;;;;;9.61;88.27;101038.30;104656;1261;138582;-69
2024/03/01 07:10:23;;;;;;;66.00;40.50;;;;;;;9.60;88.18;101039.16;104832;1261;60840;-69
2024/03/01 07:12:50;;;;;;;65.00;38.60;;;;;;;9.61;88.20;101046.01;104764;1261;138299;-70
2024/03/01 07:15:17;;;;;;;67.70;42.10;;;;;;;9.61;88.15;101040.40;104846;1260;66673;-68
2024/03/01 07:17:44;;;;;;;62.40;39.20;;;;;;;9.62;88.22;101043.59;108960;1254;138386;-68
2024/03/01 07:20:11;;;;;;;70.70;42.20;;;;;;;9.62;88.13;101041.67;109123;1254;59448;-70
2024/03/01 07:22:37;;;;;;;75.40;48.70;;;;;;;9.63;88.12;101038.38;109080;1256;60211;-69
2024/03/01 07:25:05;;;;;;;85.00;51.80;;;;;;;9.65;88.12;101043.55;108965;1256;139228;-69
2024/03/01 07:27:35;;;;;;;84.40;50.20;;;;;;;9.66;88.11;101039.19;108015;1258;65642;-69
2024/03/01 07:30:04;;;;;;;72.40;46.50;;;;;;;9.69;88.10;101039.13;104755;1261;139585;-69
2024/03/01 07:32:34;;;;;;;64.80;42.50;;;;;;;9.73;88.05;101039.41;104682;1260;60939;-69
2024/03/01 07:35:07;;;;;;;70.40;42.70;;;;;;;9.75;88.11;101040.36;105334;1260;60443;-69
2024/03/01 07:37:34;;;;;;;69.70;43.50;;;;;;;9.77;88.10;101039.18;104854;1259;138917;-69
2024/03/01 07:40:00;;;;;;;67.60;40.80;;;;;;;9.78;88.05;101038.52;104673;1262;65035;-69
2024/03/01 07:42:27;;;;;;;65.50;41.40;;;;;;;9.78;88.01;101040.64;104790;1261;138682;-69
2024/03/01 07:44:55;;;;;;;67.60;40.90;;;;;;;9.80;88.16;101037.19;104971;1261;60468;-69
2024/03/01 07:47:26;;;;;;;68.70;42.20;;;;;;;9.84;88.10;101039.95;104841;1259;60412;-69
2024/03/01 07:49:53;;;;;;;70.20;43.40;;;;;;;9.84;87.97;101043.09;104731;1260;138257;-69
2024/03/01 07:52:20;;;;;;;73.80;45.10;;;;;;;9.82;87.86;101042.69;104884;1260;65479;-69
2024/03/01 07:54:47;;;;;;;72.20;44.90;;;;;;;9.82;87.98;101043.05;108912;1256;138149;-70
2024/03/01 07:57:14;;;;;;;70.30;44.50;;;;;;;9.83;87.90;101040.61;106458;1256;60583;-70
2024/03/01 07:59:41;;;;;;;82.10;49.70;;;;;;;9.83;87.87;101039.90;104897;1259;139232;-69
2024/03/01 08:02:11;;;;;;;77.60;48.80;;;;;;;9.81;87.77;101042.48;104903;1259;73793;-69
2024/03/01 08:04:38;;;;;;;74.90;46.50;;;;;;;9.80;87.81;101038.92;104741;1261;65698;-66
2024/03/01 08:07:07;;;;;;;79.10;49.20;;;;;;;9.77;87.68;101039.02;104997;1256;138212;-65
2024/03/01 08:09:40;;;;;;;75.30;46.80;;;;;;;9.77;87.88;101035.85;109046;1254;58498;-66
2024/03/01 08:12:13;;;;;;;83.10;47.50;;;;;;;9.77;87.82;101040.06;108775;1257;138249;-65
2024/03/01 08:14:40;;;;;;;68.00;45.30;;;;;;;9.76;87.75;101038.11;109066;1256;74423;-64
2024/03/01 08:17:08;;;;;;;75.60;44.30;;;;;;;9.78;87.78;101038.33;105272;1260;184035;-64
2024/03/01 08:19:41;;;;;;;68.60;43.60;;;;;;;9.79;87.71;101039.59;104883;1260;138865;-65
2024/03/01 08:22:13;;;;;;;76.70;46.00;;;;;;;9.80;87.74;101039.62;109140;1256;59372;-65
2024/03/01 08:24:41;;;;;;;74.40;45.20;;;;;;;9.81;87.85;101039.34;108894;1256;138223;-65
2024/03/01 08:27:08;;;;;;;70.40;43.90;;;;;;;9.84;87.74;101041.34;109082;1257;72062;-65
2024/03/01 08:29:35;;;;;;;66.70;42.60;;;;;;;9.84;87.67;101037.33;108940;1257;66322;-65
2024/03/01 08:32:02;;;;;;;72.90;45.10;;;;;;;9.83;87.44;101033.60;108612;1258;138554;-65
2024/03/01 08:34:55;;;;;;;70.70;44.40;;;;;;;9.81;87.53;101035.45;104983;1262;60542;-65
2024/03/01 08:37:27;;;;;;;70.70;45.10;;;;;;;9.78;87.37;101032.73;104788;1261;138964;-65
2024/03/01 08:39:54;;;;;;;75.60;44.70;;;;;;;9.76;87.39;101032.51;104962;1262;74342;-65
2024/03/01 08:42:22;;;;;;;75.50;47.10;;;;;;;9.76;87.53;101032.14;104842;1262;138428;-65
2024/03/01 08:45:12;;;;;;;80.80;45.30;;;;;;;9.76;87.56;101030.95;109053;1257;71377;-65
2024/03/01 08:47:42;;;;;;;75.60;45.70;;;;;;;9.76;87.54;101030.58;108830;1256;139086;-66
2024/03/01 08:50:23;;;;;;;69.00;46.10;;;;;;;9.75;87.42;101035.11;109024;1258;60011;-66
2024/03/01 08:52:51;;;;;;;75.20;44.70;;;;;;;9.76;87.41;101032.85;109058;1256;74858;-66
2024/03/01 08:55:17;;;;;;;75.80;45.10;;;;;;;9.81;87.40;101032.29;108757;1261;139264;-66
2024/03/01 08:57:44;;;;;;;72.30;46.20;;;;;;;9.85;87.42;101025.27;109057;1256;73862;-66
2024/03/01 09:00:26;;;;;;;72.60;45.30;;;;;;;9.91;87.42;101025.11;108914;1257;138970;-66
2024/03/01 09:02:53;;;;;;;71.50;45.80;;;;;;;9.99;87.43;101035.00;108565;1260;59297;-65
2024/03/01 09:05:23;;;;;;;71.80;47.60;;;;;;;10.06;87.31;101032.92;104720;1261;73594;-65
2024/03/01 09:07:50;;;;;;;65.60;44.90;;;;;;;10.13;87.24;101024.92;104827;1255;138650;-65
2024/03/01 09:10:27;;;;;;;71.70;46.50;;;;;;;10.22;87.16;101016.41;104858;1260;73024;-65
2024/03/01 09:12:54;;;;;;;73.50;47.70;;;;;;;10.38;87.34;101013.60;104727;1260;138954;-65
2024/03/01 09:15:22;;;;;;;71.20;47.50;;;;;;;10.53;87.09;101010.89;104858;1259;60506;-65
2024/03/01 09:17:49;;;;;;;69.70;47.50;;;;;;;10.60;86.74;101010.21;108915;1254;138566;-65
2024/03/01 09:20:22;;;;;;;69.80;46.80;;;;;;;10.64;86.68;101011.39;107315;1260;65378;-65
2024/03/01 09:22:49;;;;;;;;;;;;;;;10.74;86.47;101012.19;109108;1256;72809;-65
2024/03/01 09:25:40;;;;;;;72.70;48.00;;;;;;;10.78;86.19;101011.09;109003;1256;124889;-65
2024/03/01 09:28:07;;;;;;;71.40;48.70;;;;;;;10.79;85.96;101006.91;109060;1257;59480;-65
2024/03/01 09:30:34;;;;;;;77.70;50.00;;;;;;;10.85;85.92;101009.52;108801;1256;138533;-66
2024/03/01 09:33:01;;;;;;;71.30;46.90;;;;;;;10.94;85.96;101007.84;108936;1254;65096;-66
2024/03/01 09:35:27;;;;;;;74.90;49.30;;;;;;;11.05;85.73;101000.77;109080;1257;73640;-65
2024/03/01 09:37:54;;;;;;;73.60;48.80;;;;;;;11.13;85.41;101001.30;105136;1262;138462;-66
2024/03/01 09:40:53;;;;;;;72.20;48.50;;;;;;;11.19;85.33;101001.31;104986;1255;60550;-65
2024/03/01 09:43:39;;;;;;;71.10;45.90;;;;;;;11.29;85.22;101002.63;104734;1254;139074;-65
2024/03/01 09:46:27;;;;;;;74.20;49.90;;;;;;;11.38;84.98;101007.06;105055;1261;65899;-65
2024/03/01 09:49:13;;;;;;;71.00;47.80;;;;;;;11.47;84.81;101003.44;104815;1260;138573;-65
2024/03/01 09:52:01;;;;;;;67.60;47.00;;;;;;;11.64;84.94;101001.75;104906;1260;60450;-65
2024/03/01 09:54:34;;;;;;;71.20;47.60;;;;;;;11.80;84.78;100999.85;104843;1260;137803;-65
2024/03/01 09:57:15;;;;;;;72.10;47.10;;;;;;;11.90;84.44;100992.71;104923;1260;74653;-65
2024/03/01 09:59:54;;;;;;;76.90;49.10;;;;;;;11.99;84.34;100983.63;105623;1260;138819;-66
2024/03/01 10:02:46;;;;;;;72.60;49.10;;;;;;;12.13;84.21;100973.55;104839;1260;73518;-66
2024/03/01 10:05:28;;;;;;;69.60;47.60;;;;;;;12.26;83.88;100970.14;108587;1260;60350;-64
2024/03/01 10:08:13;;;;;;;76.00;48.40;;;;;;;12.29;83.24;100969.67;108937;1257;138223;-69
2024/03/01 10:11:10;;;;;;;67.40;46.70;;;;;;;12.28;83.00;100957.01;108962;1257;75063;-65
2024/03/01 10:14:09;;;;;;;67.90;46.00;;;;;;;12.33;82.80;100951.11;108906;1257;137975;-65
2024/03/01 10:16:45;;;;;;;64.90;46.30;;;;;;;12.44;82.82;100944.67;108743;1261;71837;-65
2024/03/01 10:19:27;;;;;;;65.70;45.80;;;;;;;12.51;82.75;100939.35;104921;1265;138018;-65
2024/03/01 10:22:05;;;;;;;69.40;43.80;;;;;;;12.66;82.92;100945.46;104514;1266;61042;-65
2024/03/01 10:24:54;;;;;;;57.20;41.40;;;;;;;12.78;82.58;100947.45;104467;1264;138467;-65
2024/03/01 10:27:39;;;;;;;62.40;42.20;;;;;;;12.80;82.15;100948.19;104549;1265;65749;-65
2024/03/01 10:30:26;;;;;;;63.30;42.60;;;;;;;12.77;81.88;100946.71;104375;1264;139121;-65
2024/03/01 10:33:14;;;;;;;59.90;43.50;;;;;;;12.69;81.41;100948.68;104631;1262;60627;-65
2024/03/01 10:36:03;;;;;;;58.30;43.00;;;;;;;12.61;81.45;100950.64;104459;1266;137859;-65
2024/03/01 10:38:40;;;;;;;59.10;44.60;;;;;;;12.58;81.44;100949.35;108685;1260;73880;-66
2024/03/01 10:41:30;;;;;;;62.40;42.90;;;;;;;12.52;81.19;100945.88;105335;1265;65726;-64
2024/03/01 10:44:23;;;;;;;63.20;43.70;;;;;;;12.42;81.11;100943.73;104533;1261;138835;-65
2024/03/01 10:47:20;;;;;;;61.50;44.40;;;;;;;12.37;81.02;100944.16;104554;1265;60492;-65
2024/03/01 10:50:05;;;;;;;63.70;44.30;;;;;;;12.38;81.28;100936.08;108461;1262;138985;-66
2024/03/01 10:52:38;;;;;;;59.30;43.20;;;;;;;12.50;81.63;100929.64;106008;1261;73959;-65
2024/03/01 10:55:13;;;;;;;59.90;43.80;;;;;;;12.75;82.08;100932.75;108702;1258;138816;-67
2024/03/01 10:57:47;;;;;;;63.00;44.10;;;;;;;13.07;82.02;100933.54;109120;1256;72805;-66
2024/03/01 11:00:14;;;;;;;57.20;42.70;;;;;;;13.40;81.89;100930.56;108869;1257;138580;-67
2024/03/01 11:02:46;;;;;;;54.10;41.10;;;;;;;13.76;81.91;100928.33;108876;1256;58878;-66
2024/03/01 11:05:28;;;;;;;52.40;37.90;;;;;;;14.14;81.40;100918.45;109077;1257;71678;-66
2024/03/01 11:08:16;;;;;;;59.90;41.50;;;;;;;14.38;80.64;100921.56;108964;1257;138015;-65
2024/03/01 11:10:48;;;;;;;55.50;40.40;;;;;;;14.45;79.68;100922.20;108849;1256;72595;-66
2024/03/01 11:13:18;;;;;;;57.40;41.80;;;;;;;14.44;79.30;100920.77;108952;1256;138033;-65
2024/03/01 11:15:44;;;;;;;56.00;41.00;;;;;;;14.38;78.84;100919.80;107100;1256;60557;-65